sensor_id;sensor_type;location;lat;lon;timestamp;P1;P2;P0
48155;PMS5003;35568;48.104;11.782;2023-02-15T00:01:42;19;19;
48155;PMS5003;35568;48.104;11.782;2023-02-15T00:04:09;20;20;
48155;PMS5003;35568;48.104;11.782;2023-02-15T00:06:38;23;21;
48155;PMS5003;35568;48.104;11.782;2023-02-15T00:09:06;21;19;
48155;PMS5003;35568;48.104;11.782;2023-02-15T00:11:33;15;14;
48155;PMS5003;35568;48.104;11.782;2023-02-15T00:13:59;20;19;
48155;PMS5003;35568;48.104;11.782;2023-02-15T00:16:27;20;19;
48155;PMS5003;35568;48.104;11.782;2023-02-15T00:18:54;20;20;
48155;PMS5003;35568;48.104;11.782;2023-02-15T00:21:21;19;18;
48155;PMS5003;35568;48.104;11.782;2023-02-15T00:23:47;20;17;
48155;PMS5003;35568;48.104;11.782;2023-02-15T00:26:15;15;14;
48155;PMS5003;35568;48.104;11.782;2023-02-15T00:28:41;23;22;
48155;PMS5003;35568;48.104;11.782;2023-02-15T00:31:09;14;14;
48155;PMS5003;35568;48.104;11.782;2023-02-15T00:33:38;15;13;
48155;PMS5003;35568;48.104;11.782;2023-02-15T00:36:06;13;13;
48155;PMS5003;35568;48.104;11.782;2023-02-15T00:38:35;16;16;
48155;PMS5003;35568;48.104;11.782;2023-02-15T00:41:03;16;16;
48155;PMS5003;35568;48.104;11.782;2023-02-15T00:43:32;17;17;
48155;PMS5003;35568;48.104;11.782;2023-02-15T00:46:00;17;16;
48155;PMS5003;35568;48.104;11.782;2023-02-15T00:48:28;18;17;
48155;PMS5003;35568;48.104;11.782;2023-02-15T00:50:55;20;17;
48155;PMS5003;35568;48.104;11.782;2023-02-15T00:53:23;17;17;
48155;PMS5003;35568;48.104;11.782;2023-02-15T00:55:51;18;18;
48155;PMS5003;35568;48.104;11.782;2023-02-15T00:58:18;16;15;
48155;PMS5003;35568;48.104;11.782;2023-02-15T01:00:46;18;17;
48155;PMS5003;35568;48.104;11.782;2023-02-15T01:03:13;12;12;
48155;PMS5003;35568;48.104;11.782;2023-02-15T01:05:42;19;17;
48155;PMS5003;35568;48.104;11.782;2023-02-15T01:08:09;16;13;
48155;PMS5003;35568;48.104;11.782;2023-02-15T01:10:36;18;18;
48155;PMS5003;35568;48.104;11.782;2023-02-15T01:13:03;18;17;
48155;PMS5003;35568;48.104;11.782;2023-02-15T01:15:30;16;15;
48155;PMS5003;35568;48.104;11.782;2023-02-15T01:18:00;15;15;
48155;PMS5003;35568;48.104;11.782;2023-02-15T01:20:28;17;16;
48155;PMS5003;35568;48.104;11.782;2023-02-15T01:22:56;12;12;
48155;PMS5003;35568;48.104;11.782;2023-02-15T01:25:24;16;15;
48155;PMS5003;35568;48.104;11.782;2023-02-15T01:27:52;14;14;
48155;PMS5003;35568;48.104;11.782;2023-02-15T01:30:18;14;14;
48155;PMS5003;35568;48.104;11.782;2023-02-15T01:32:46;12;12;
48155;PMS5003;35568;48.104;11.782;2023-02-15T01:35:13;14;12;
48155;PMS5003;35568;48.104;11.782;2023-02-15T01:37:40;14;12;
48155;PMS5003;35568;48.104;11.782;2023-02-15T01:40:08;16;14;
48155;PMS5003;35568;48.104;11.782;2023-02-15T01:42:40;16;15;
48155;PMS5003;35568;48.104;11.782;2023-02-15T01:45:14;15;14;
48155;PMS5003;35568;48.104;11.782;2023-02-15T01:47:46;11;11;
48155;PMS5003;35568;48.104;11.782;2023-02-15T01:50:17;17;17;
48155;PMS5003;35568;48.104;11.782;2023-02-15T01:52:48;15;15;
48155;PMS5003;35568;48.104;11.782;2023-02-15T01:55:21;16;14;
48155;PMS5003;35568;48.104;11.782;2023-02-15T01:57:50;16;15;
48155;PMS5003;35568;48.104;11.782;2023-02-15T02:00:18;19;18;
48155;PMS5003;35568;48.104;11.782;2023-02-15T02:02:46;15;12;
48155;PMS5003;35568;48.104;11.782;2023-02-15T02:05:17;11;10;
48155;PMS5003;35568;48.104;11.782;2023-02-15T02:07:44;13;12;
48155;PMS5003;35568;48.104;11.782;2023-02-15T02:10:15;14;12;
48155;PMS5003;35568;48.104;11.782;2023-02-15T02:12:43;14;12;
48155;PMS5003;35568;48.104;11.782;2023-02-15T02:15:13;16;14;
48155;PMS5003;35568;48.104;11.782;2023-02-15T02:17:45;14;12;
48155;PMS5003;35568;48.104;11.782;2023-02-15T02:20:26;17;17;
48155;PMS5003;35568;48.104;11.782;2023-02-15T02:23:05;18;17;
48155;PMS5003;35568;48.104;11.782;2023-02-15T02:25:47;15;15;
48155;PMS5003;35568;48.104;11.782;2023-02-15T02:28:37;16;14;
48155;PMS5003;35568;48.104;11.782;2023-02-15T02:31:29;15;15;
48155;PMS5003;35568;48.104;11.782;2023-02-15T02:34:10;15;15;
48155;PMS5003;35568;48.104;11.782;2023-02-15T02:36:45;15;15;
48155;PMS5003;35568;48.104;11.782;2023-02-15T02:39:21;16;16;
48155;PMS5003;35568;48.104;11.782;2023-02-15T02:41:59;18;17;
48155;PMS5003;35568;48.104;11.782;2023-02-15T02:44:31;19;16;
48155;PMS5003;35568;48.104;11.782;2023-02-15T02:47:08;17;16;
48155;PMS5003;35568;48.104;11.782;2023-02-15T02:49:39;20;19;
48155;PMS5003;35568;48.104;11.782;2023-02-15T02:53:17;15;15;
48155;PMS5003;35568;48.104;11.782;2023-02-15T02:55:45;15;14;
48155;PMS5003;35568;48.104;11.782;2023-02-15T02:58:16;20;19;
48155;PMS5003;35568;48.104;11.782;2023-02-15T03:00:48;16;16;
48155;PMS5003;35568;48.104;11.782;2023-02-15T03:03:21;18;17;
48155;PMS5003;35568;48.104;11.782;2023-02-15T03:05:54;18;17;
48155;PMS5003;35568;48.104;11.782;2023-02-15T03:08:25;21;18;
48155;PMS5003;35568;48.104;11.782;2023-02-15T03:10:59;19;18;
48155;PMS5003;35568;48.104;11.782;2023-02-15T03:13:27;16;15;
48155;PMS5003;35568;48.104;11.782;2023-02-15T03:15:55;19;18;
48155;PMS5003;35568;48.104;11.782;2023-02-15T03:18:25;15;15;
48155;PMS5003;35568;48.104;11.782;2023-02-15T03:20:56;15;15;
48155;PMS5003;35568;48.104;11.782;2023-02-15T03:23:28;17;16;
48155;PMS5003;35568;48.104;11.782;2023-02-15T03:25:58;15;15;
48155;PMS5003;35568;48.104;11.782;2023-02-15T03:28:29;17;17;
48155;PMS5003;35568;48.104;11.782;2023-02-15T03:31:01;16;14;
48155;PMS5003;35568;48.104;11.782;2023-02-15T03:33:32;17;14;
48155;PMS5003;35568;48.104;11.782;2023-02-15T03:36:04;18;17;
48155;PMS5003;35568;48.104;11.782;2023-02-15T03:38:40;15;15;
48155;PMS5003;35568;48.104;11.782;2023-02-15T03:41:14;15;15;
48155;PMS5003;35568;48.104;11.782;2023-02-15T03:43:45;15;14;
48155;PMS5003;35568;48.104;11.782;2023-02-15T03:46:18;15;14;
48155;PMS5003;35568;48.104;11.782;2023-02-15T03:48:52;16;15;
48155;PMS5003;35568;48.104;11.782;2023-02-15T03:51:21;17;15;
48155;PMS5003;35568;48.104;11.782;2023-02-15T03:53:54;16;15;
48155;PMS5003;35568;48.104;11.782;2023-02-15T03:56:22;17;17;
48155;PMS5003;35568;48.104;11.782;2023-02-15T03:58:51;18;16;
48155;PMS5003;35568;48.104;11.782;2023-02-15T04:03:07;15;14;
48155;PMS5003;35568;48.104;11.782;2023-02-15T04:05:38;15;15;
48155;PMS5003;35568;48.104;11.782;2023-02-15T04:08:07;17;15;
48155;PMS5003;35568;48.104;11.782;2023-02-15T04:10:34;15;14;
48155;PMS5003;35568;48.104;11.782;2023-02-15T04:13:02;15;13;
48155;PMS5003;35568;48.104;11.782;2023-02-15T04:15:29;18;17;
48155;PMS5003;35568;48.104;11.782;2023-02-15T04:17:56;13;12;
48155;PMS5003;35568;48.104;11.782;2023-02-15T04:20:23;14;14;
48155;PMS5003;35568;48.104;11.782;2023-02-15T04:22:50;14;13;
48155;PMS5003;35568;48.104;11.782;2023-02-15T04:25:16;15;15;
48155;PMS5003;35568;48.104;11.782;2023-02-15T04:27:44;15;14;
48155;PMS5003;35568;48.104;11.782;2023-02-15T04:30:12;14;14;
48155;PMS5003;35568;48.104;11.782;2023-02-15T04:32:40;15;15;
48155;PMS5003;35568;48.104;11.782;2023-02-15T04:35:07;14;13;
48155;PMS5003;35568;48.104;11.782;2023-02-15T04:37:35;19;15;
48155;PMS5003;35568;48.104;11.782;2023-02-15T04:40:02;18;16;
48155;PMS5003;35568;48.104;11.782;2023-02-15T04:42:30;12;12;
48155;PMS5003;35568;48.104;11.782;2023-02-15T04:44:56;18;15;
48155;PMS5003;35568;48.104;11.782;2023-02-15T04:47:23;13;13;
48155;PMS5003;35568;48.104;11.782;2023-02-15T04:49:50;17;14;
48155;PMS5003;35568;48.104;11.782;2023-02-15T04:52:17;15;14;
48155;PMS5003;35568;48.104;11.782;2023-02-15T04:54:44;12;12;
48155;PMS5003;35568;48.104;11.782;2023-02-15T04:57:11;14;13;
48155;PMS5003;35568;48.104;11.782;2023-02-15T04:59:39;16;14;
48155;PMS5003;35568;48.104;11.782;2023-02-15T05:02:05;19;17;
48155;PMS5003;35568;48.104;11.782;2023-02-15T05:04:33;14;13;
48155;PMS5003;35568;48.104;11.782;2023-02-15T05:07:00;11;10;
48155;PMS5003;35568;48.104;11.782;2023-02-15T05:09:27;14;14;
48155;PMS5003;35568;48.104;11.782;2023-02-15T05:11:53;12;12;
48155;PMS5003;35568;48.104;11.782;2023-02-15T05:14:20;15;15;
48155;PMS5003;35568;48.104;11.782;2023-02-15T05:16:47;17;13;
48155;PMS5003;35568;48.104;11.782;2023-02-15T05:19:14;15;15;
48155;PMS5003;35568;48.104;11.782;2023-02-15T05:21:42;10;10;
48155;PMS5003;35568;48.104;11.782;2023-02-15T05:24:09;14;12;
48155;PMS5003;35568;48.104;11.782;2023-02-15T05:26:35;15;14;
48155;PMS5003;35568;48.104;11.782;2023-02-15T05:29:02;17;17;
48155;PMS5003;35568;48.104;11.782;2023-02-15T05:31:30;15;15;
48155;PMS5003;35568;48.104;11.782;2023-02-15T05:33:58;15;15;
48155;PMS5003;35568;48.104;11.782;2023-02-15T05:36:25;19;19;
48155;PMS5003;35568;48.104;11.782;2023-02-15T05:38:52;15;14;
48155;PMS5003;35568;48.104;11.782;2023-02-15T05:41:19;19;17;
48155;PMS5003;35568;48.104;11.782;2023-02-15T05:43:46;14;14;
48155;PMS5003;35568;48.104;11.782;2023-02-15T05:46:13;14;14;
48155;PMS5003;35568;48.104;11.782;2023-02-15T05:48:39;18;14;
48155;PMS5003;35568;48.104;11.782;2023-02-15T05:51:08;14;13;
48155;PMS5003;35568;48.104;11.782;2023-02-15T05:53:37;16;16;
48155;PMS5003;35568;48.104;11.782;2023-02-15T05:56:05;12;12;
48155;PMS5003;35568;48.104;11.782;2023-02-15T05:58:34;12;12;
48155;PMS5003;35568;48.104;11.782;2023-02-15T06:01:07;13;12;
48155;PMS5003;35568;48.104;11.782;2023-02-15T06:03:34;17;17;
48155;PMS5003;35568;48.104;11.782;2023-02-15T06:06:01;17;14;
48155;PMS5003;35568;48.104;11.782;2023-02-15T06:08:28;14;14;
48155;PMS5003;35568;48.104;11.782;2023-02-15T06:10:55;16;16;
48155;PMS5003;35568;48.104;11.782;2023-02-15T06:13:22;17;17;
48155;PMS5003;35568;48.104;11.782;2023-02-15T06:15:49;16;16;
48155;PMS5003;35568;48.104;11.782;2023-02-15T06:18:15;24;24;
48155;PMS5003;35568;48.104;11.782;2023-02-15T06:20:44;27;26;
48155;PMS5003;35568;48.104;11.782;2023-02-15T06:23:12;17;17;
48155;PMS5003;35568;48.104;11.782;2023-02-15T06:25:40;12;12;
48155;PMS5003;35568;48.104;11.782;2023-02-15T06:28:07;16;16;
48155;PMS5003;35568;48.104;11.782;2023-02-15T06:30:34;24;24;
48155;PMS5003;35568;48.104;11.782;2023-02-15T06:33:00;17;17;
48155;PMS5003;35568;48.104;11.782;2023-02-15T06:35:27;18;17;
48155;PMS5003;35568;48.104;11.782;2023-02-15T06:37:54;21;19;
48155;PMS5003;35568;48.104;11.782;2023-02-15T06:40:21;13;13;
48155;PMS5003;35568;48.104;11.782;2023-02-15T06:42:48;14;13;
48155;PMS5003;35568;48.104;11.782;2023-02-15T06:45:16;14;14;
48155;PMS5003;35568;48.104;11.782;2023-02-15T06:47:43;19;18;
48155;PMS5003;35568;48.104;11.782;2023-02-15T06:50:10;15;13;
48155;PMS5003;35568;48.104;11.782;2023-02-15T06:52:38;14;13;
48155;PMS5003;35568;48.104;11.782;2023-02-15T06:55:05;13;12;
48155;PMS5003;35568;48.104;11.782;2023-02-15T06:57:33;13;13;
48155;PMS5003;35568;48.104;11.782;2023-02-15T07:00:00;17;15;
48155;PMS5003;35568;48.104;11.782;2023-02-15T07:02:28;13;13;
48155;PMS5003;35568;48.104;11.782;2023-02-15T07:04:54;17;17;
48155;PMS5003;35568;48.104;11.782;2023-02-15T07:07:22;18;17;
48155;PMS5003;35568;48.104;11.782;2023-02-15T07:09:49;15;14;
48155;PMS5003;35568;48.104;11.782;2023-02-15T07:12:15;36;36;
48155;PMS5003;35568;48.104;11.782;2023-02-15T07:14:42;21;19;
48155;PMS5003;35568;48.104;11.782;2023-02-15T07:17:09;17;15;
48155;PMS5003;35568;48.104;11.782;2023-02-15T07:19:36;18;17;
48155;PMS5003;35568;48.104;11.782;2023-02-15T07:22:03;18;15;
48155;PMS5003;35568;48.104;11.782;2023-02-15T07:24:30;15;15;
48155;PMS5003;35568;48.104;11.782;2023-02-15T07:26:57;16;16;
48155;PMS5003;35568;48.104;11.782;2023-02-15T07:29:29;18;16;
48155;PMS5003;35568;48.104;11.782;2023-02-15T07:31:56;18;16;
48155;PMS5003;35568;48.104;11.782;2023-02-15T07:34:23;19;18;
48155;PMS5003;35568;48.104;11.782;2023-02-15T07:36:50;15;14;
48155;PMS5003;35568;48.104;11.782;2023-02-15T07:39:17;13;12;
48155;PMS5003;35568;48.104;11.782;2023-02-15T07:41:44;16;16;
48155;PMS5003;35568;48.104;11.782;2023-02-15T07:44:11;15;14;
48155;PMS5003;35568;48.104;11.782;2023-02-15T07:46:40;20;20;
48155;PMS5003;35568;48.104;11.782;2023-02-15T07:49:07;16;15;
48155;PMS5003;35568;48.104;11.782;2023-02-15T07:51:33;16;16;
48155;PMS5003;35568;48.104;11.782;2023-02-15T07:54:00;15;14;
48155;PMS5003;35568;48.104;11.782;2023-02-15T07:56:27;15;14;
48155;PMS5003;35568;48.104;11.782;2023-02-15T07:58:55;15;15;
48155;PMS5003;35568;48.104;11.782;2023-02-15T08:01:22;20;18;
48155;PMS5003;35568;48.104;11.782;2023-02-15T08:03:50;17;16;
48155;PMS5003;35568;48.104;11.782;2023-02-15T08:06:18;17;17;
48155;PMS5003;35568;48.104;11.782;2023-02-15T08:08:45;21;20;
48155;PMS5003;35568;48.104;11.782;2023-02-15T08:11:16;17;16;
48155;PMS5003;35568;48.104;11.782;2023-02-15T08:13:45;18;17;
48155;PMS5003;35568;48.104;11.782;2023-02-15T08:16:12;20;17;
48155;PMS5003;35568;48.104;11.782;2023-02-15T08:18:39;15;14;
48155;PMS5003;35568;48.104;11.782;2023-02-15T08:21:06;19;16;
48155;PMS5003;35568;48.104;11.782;2023-02-15T08:23:33;17;17;
48155;PMS5003;35568;48.104;11.782;2023-02-15T08:26:00;17;16;
48155;PMS5003;35568;48.104;11.782;2023-02-15T08:28:27;17;16;
48155;PMS5003;35568;48.104;11.782;2023-02-15T08:30:54;16;16;
48155;PMS5003;35568;48.104;11.782;2023-02-15T08:33:21;18;18;
48155;PMS5003;35568;48.104;11.782;2023-02-15T08:35:48;17;16;
48155;PMS5003;35568;48.104;11.782;2023-02-15T08:38:15;15;15;
48155;PMS5003;35568;48.104;11.782;2023-02-15T08:40:42;16;16;
48155;PMS5003;35568;48.104;11.782;2023-02-15T08:43:08;17;17;
48155;PMS5003;35568;48.104;11.782;2023-02-15T08:45:35;19;18;
48155;PMS5003;35568;48.104;11.782;2023-02-15T08:48:03;17;16;
48155;PMS5003;35568;48.104;11.782;2023-02-15T08:50:30;20;19;
48155;PMS5003;35568;48.104;11.782;2023-02-15T08:52:57;17;17;
48155;PMS5003;35568;48.104;11.782;2023-02-15T08:55:24;16;14;
48155;PMS5003;35568;48.104;11.782;2023-02-15T08:57:51;15;15;
48155;PMS5003;35568;48.104;11.782;2023-02-15T09:00:18;18;12;
48155;PMS5003;35568;48.104;11.782;2023-02-15T09:02:47;17;16;
48155;PMS5003;35568;48.104;11.782;2023-02-15T09:05:13;16;16;
48155;PMS5003;35568;48.104;11.782;2023-02-15T09:07:40;16;15;
48155;PMS5003;35568;48.104;11.782;2023-02-15T09:10:07;19;18;
48155;PMS5003;35568;48.104;11.782;2023-02-15T09:12:35;17;17;
48155;PMS5003;35568;48.104;11.782;2023-02-15T09:15:01;16;16;
48155;PMS5003;35568;48.104;11.782;2023-02-15T09:17:28;17;16;
48155;PMS5003;35568;48.104;11.782;2023-02-15T09:19:55;18;17;
48155;PMS5003;35568;48.104;11.782;2023-02-15T09:22:22;18;15;
48155;PMS5003;35568;48.104;11.782;2023-02-15T09:24:49;15;14;
48155;PMS5003;35568;48.104;11.782;2023-02-15T09:27:15;17;15;
48155;PMS5003;35568;48.104;11.782;2023-02-15T09:29:42;21;20;
48155;PMS5003;35568;48.104;11.782;2023-02-15T09:32:09;16;14;
48155;PMS5003;35568;48.104;11.782;2023-02-15T09:34:39;17;16;
48155;PMS5003;35568;48.104;11.782;2023-02-15T09:37:06;22;19;
48155;PMS5003;35568;48.104;11.782;2023-02-15T09:39:32;17;16;
48155;PMS5003;35568;48.104;11.782;2023-02-15T09:44:15;17;16;
48155;PMS5003;35568;48.104;11.782;2023-02-15T09:46:57;16;15;
48155;PMS5003;35568;48.104;11.782;2023-02-15T09:49:40;16;16;
48155;PMS5003;35568;48.104;11.782;2023-02-15T09:52:19;17;17;
48155;PMS5003;35568;48.104;11.782;2023-02-15T09:54:59;19;17;
48155;PMS5003;35568;48.104;11.782;2023-02-15T09:57:39;19;18;
48155;PMS5003;35568;48.104;11.782;2023-02-15T10:00:16;21;20;
48155;PMS5003;35568;48.104;11.782;2023-02-15T10:03:00;20;20;
48155;PMS5003;35568;48.104;11.782;2023-02-15T10:05:40;23;21;
48155;PMS5003;35568;48.104;11.782;2023-02-15T10:08:23;15;15;
48155;PMS5003;35568;48.104;11.782;2023-02-15T10:11:20;16;15;
48155;PMS5003;35568;48.104;11.782;2023-02-15T10:14:02;17;16;
48155;PMS5003;35568;48.104;11.782;2023-02-15T10:16:44;18;17;
48155;PMS5003;35568;48.104;11.782;2023-02-15T10:19:19;15;15;
48155;PMS5003;35568;48.104;11.782;2023-02-15T10:21:59;16;15;
48155;PMS5003;35568;48.104;11.782;2023-02-15T10:24:40;18;18;
48155;PMS5003;35568;48.104;11.782;2023-02-15T10:27:24;15;14;
48155;PMS5003;35568;48.104;11.782;2023-02-15T10:29:55;15;15;
48155;PMS5003;35568;48.104;11.782;2023-02-15T10:32:28;17;17;
48155;PMS5003;35568;48.104;11.782;2023-02-15T10:35:04;18;17;
48155;PMS5003;35568;48.104;11.782;2023-02-15T10:37:44;15;15;
48155;PMS5003;35568;48.104;11.782;2023-02-15T10:40:23;14;14;
48155;PMS5003;35568;48.104;11.782;2023-02-15T10:42:59;17;16;
48155;PMS5003;35568;48.104;11.782;2023-02-15T10:45:41;16;15;
48155;PMS5003;35568;48.104;11.782;2023-02-15T10:48:22;20;20;
48155;PMS5003;35568;48.104;11.782;2023-02-15T10:51:00;17;17;
48155;PMS5003;35568;48.104;11.782;2023-02-15T10:53:32;13;12;
48155;PMS5003;35568;48.104;11.782;2023-02-15T10:56:18;17;15;
48155;PMS5003;35568;48.104;11.782;2023-02-15T10:58:53;14;14;
48155;PMS5003;35568;48.104;11.782;2023-02-15T11:01:34;14;13;
48155;PMS5003;35568;48.104;11.782;2023-02-15T11:04:16;15;14;
48155;PMS5003;35568;48.104;11.782;2023-02-15T11:07:02;15;15;
48155;PMS5003;35568;48.104;11.782;2023-02-15T11:09:35;17;16;
48155;PMS5003;35568;48.104;11.782;2023-02-15T11:12:05;13;12;
48155;PMS5003;35568;48.104;11.782;2023-02-15T11:14:38;15;15;
48155;PMS5003;35568;48.104;11.782;2023-02-15T11:17:12;15;14;
48155;PMS5003;35568;48.104;11.782;2023-02-15T11:19:45;15;14;
48155;PMS5003;35568;48.104;11.782;2023-02-15T11:22:17;12;12;
48155;PMS5003;35568;48.104;11.782;2023-02-15T11:24:45;17;15;
48155;PMS5003;35568;48.104;11.782;2023-02-15T11:27:17;13;13;
48155;PMS5003;35568;48.104;11.782;2023-02-15T11:29:50;16;15;
48155;PMS5003;35568;48.104;11.782;2023-02-15T11:32:21;14;13;
48155;PMS5003;35568;48.104;11.782;2023-02-15T11:34:53;16;15;
48155;PMS5003;35568;48.104;11.782;2023-02-15T11:37:27;15;14;
48155;PMS5003;35568;48.104;11.782;2023-02-15T11:39:59;13;12;
48155;PMS5003;35568;48.104;11.782;2023-02-15T11:42:27;15;14;
48155;PMS5003;35568;48.104;11.782;2023-02-15T11:44:59;13;12;
48155;PMS5003;35568;48.104;11.782;2023-02-15T11:47:30;13;12;
48155;PMS5003;35568;48.104;11.782;2023-02-15T11:49:59;16;14;
48155;PMS5003;35568;48.104;11.782;2023-02-15T11:52:26;16;14;
48155;PMS5003;35568;48.104;11.782;2023-02-15T11:54:53;15;11;
48155;PMS5003;35568;48.104;11.782;2023-02-15T11:57:22;17;15;
48155;PMS5003;35568;48.104;11.782;2023-02-15T11:59:56;14;12;
48155;PMS5003;35568;48.104;11.782;2023-02-15T12:02:27;15;15;
48155;PMS5003;35568;48.104;11.782;2023-02-15T12:04:55;13;13;
48155;PMS5003;35568;48.104;11.782;2023-02-15T12:07:25;15;15;
48155;PMS5003;35568;48.104;11.782;2023-02-15T12:09:58;15;15;
48155;PMS5003;35568;48.104;11.782;2023-02-15T12:12:29;14;14;
48155;PMS5003;35568;48.104;11.782;2023-02-15T12:14:59;18;16;
48155;PMS5003;35568;48.104;11.782;2023-02-15T12:17:28;16;16;
48155;PMS5003;35568;48.104;11.782;2023-02-15T12:20:00;16;15;
48155;PMS5003;35568;48.104;11.782;2023-02-15T12:22:30;17;15;
48155;PMS5003;35568;48.104;11.782;2023-02-15T12:25:00;13;12;
48155;PMS5003;35568;48.104;11.782;2023-02-15T12:27:31;15;13;
48155;PMS5003;35568;48.104;11.782;2023-02-15T12:30:00;15;14;
48155;PMS5003;35568;48.104;11.782;2023-02-15T12:32:31;14;14;
48155;PMS5003;35568;48.104;11.782;2023-02-15T12:35:07;14;14;
48155;PMS5003;35568;48.104;11.782;2023-02-15T12:37:39;20;17;
48155;PMS5003;35568;48.104;11.782;2023-02-15T12:40:21;16;16;
48155;PMS5003;35568;48.104;11.782;2023-02-15T12:42:49;13;13;
48155;PMS5003;35568;48.104;11.782;2023-02-15T12:45:20;14;14;
48155;PMS5003;35568;48.104;11.782;2023-02-15T12:48:07;16;14;
48155;PMS5003;35568;48.104;11.782;2023-02-15T12:50:36;21;21;
48155;PMS5003;35568;48.104;11.782;2023-02-15T12:53:08;16;15;
48155;PMS5003;35568;48.104;11.782;2023-02-15T12:55:49;17;16;
48155;PMS5003;35568;48.104;11.782;2023-02-15T12:58:19;17;16;
48155;PMS5003;35568;48.104;11.782;2023-02-15T13:00:47;16;15;
48155;PMS5003;35568;48.104;11.782;2023-02-15T13:03:16;16;15;
48155;PMS5003;35568;48.104;11.782;2023-02-15T13:05:45;15;14;
48155;PMS5003;35568;48.104;11.782;2023-02-15T13:08:15;16;15;
48155;PMS5003;35568;48.104;11.782;2023-02-15T13:10:52;19;16;
48155;PMS5003;35568;48.104;11.782;2023-02-15T13:13:22;16;16;
48155;PMS5003;35568;48.104;11.782;2023-02-15T13:15:53;16;15;
48155;PMS5003;35568;48.104;11.782;2023-02-15T13:18:26;17;15;
48155;PMS5003;35568;48.104;11.782;2023-02-15T13:20:57;17;16;
48155;PMS5003;35568;48.104;11.782;2023-02-15T13:23:30;15;14;
48155;PMS5003;35568;48.104;11.782;2023-02-15T13:25:58;17;16;
48155;PMS5003;35568;48.104;11.782;2023-02-15T13:28:32;17;16;
48155;PMS5003;35568;48.104;11.782;2023-02-15T13:31:07;19;18;
48155;PMS5003;35568;48.104;11.782;2023-02-15T13:33:39;16;16;
48155;PMS5003;35568;48.104;11.782;2023-02-15T13:36:13;19;18;
48155;PMS5003;35568;48.104;11.782;2023-02-15T13:38:47;21;18;
48155;PMS5003;35568;48.104;11.782;2023-02-15T13:41:23;17;17;
48155;PMS5003;35568;48.104;11.782;2023-02-15T13:43:58;19;17;
48155;PMS5003;35568;48.104;11.782;2023-02-15T13:46:35;17;16;
48155;PMS5003;35568;48.104;11.782;2023-02-15T13:49:14;17;17;
48155;PMS5003;35568;48.104;11.782;2023-02-15T13:51:52;21;21;
48155;PMS5003;35568;48.104;11.782;2023-02-15T13:54:33;19;17;
48155;PMS5003;35568;48.104;11.782;2023-02-15T13:57:17;22;22;
48155;PMS5003;35568;48.104;11.782;2023-02-15T13:59:58;19;17;
48155;PMS5003;35568;48.104;11.782;2023-02-15T14:02:38;21;19;
48155;PMS5003;35568;48.104;11.782;2023-02-15T14:05:28;21;19;
48155;PMS5003;35568;48.104;11.782;2023-02-15T14:08:08;20;18;
48155;PMS5003;35568;48.104;11.782;2023-02-15T14:10:43;19;17;
48155;PMS5003;35568;48.104;11.782;2023-02-15T14:13:25;22;21;
48155;PMS5003;35568;48.104;11.782;2023-02-15T14:16:06;23;20;
48155;PMS5003;35568;48.104;11.782;2023-02-15T14:18:44;21;20;
48155;PMS5003;35568;48.104;11.782;2023-02-15T14:21:17;18;17;
48155;PMS5003;35568;48.104;11.782;2023-02-15T14:23:52;22;20;
48155;PMS5003;35568;48.104;11.782;2023-02-15T14:26:28;18;17;
48155;PMS5003;35568;48.104;11.782;2023-02-15T14:29:06;20;18;
48155;PMS5003;35568;48.104;11.782;2023-02-15T14:31:43;20;19;
48155;PMS5003;35568;48.104;11.782;2023-02-15T14:34:17;19;19;
48155;PMS5003;35568;48.104;11.782;2023-02-15T14:36:48;22;21;
48155;PMS5003;35568;48.104;11.782;2023-02-15T14:39:18;25;24;
48155;PMS5003;35568;48.104;11.782;2023-02-15T14:41:57;24;22;
48155;PMS5003;35568;48.104;11.782;2023-02-15T14:44:29;18;18;
48155;PMS5003;35568;48.104;11.782;2023-02-15T14:47:04;21;20;
48155;PMS5003;35568;48.104;11.782;2023-02-15T14:49:37;24;23;
48155;PMS5003;35568;48.104;11.782;2023-02-15T14:52:06;24;22;
48155;PMS5003;35568;48.104;11.782;2023-02-15T14:55:06;22;22;
48155;PMS5003;35568;48.104;11.782;2023-02-15T14:57:34;20;20;
48155;PMS5003;35568;48.104;11.782;2023-02-15T15:00:17;20;20;
48155;PMS5003;35568;48.104;11.782;2023-02-15T15:02:58;26;24;
48155;PMS5003;35568;48.104;11.782;2023-02-15T15:05:28;29;25;
48155;PMS5003;35568;48.104;11.782;2023-02-15T15:08:00;31;26;
48155;PMS5003;35568;48.104;11.782;2023-02-15T15:10:45;26;25;
48155;PMS5003;35568;48.104;11.782;2023-02-15T15:14:36;31;26;
48155;PMS5003;35568;48.104;11.782;2023-02-15T15:17:05;24;24;
48155;PMS5003;35568;48.104;11.782;2023-02-15T15:19:58;25;24;
48155;PMS5003;35568;48.104;11.782;2023-02-15T15:22:27;29;26;
48155;PMS5003;35568;48.104;11.782;2023-02-15T15:24:57;23;22;
48155;PMS5003;35568;48.104;11.782;2023-02-15T15:27:41;27;25;
48155;PMS5003;35568;48.104;11.782;2023-02-15T15:31:19;30;27;
48155;PMS5003;35568;48.104;11.782;2023-02-15T15:33:59;23;21;
48155;PMS5003;35568;48.104;11.782;2023-02-15T15:36:44;30;26;
48155;PMS5003;35568;48.104;11.782;2023-02-15T15:39:04;30;26;
48155;PMS5003;35568;48.104;11.782;2023-02-15T15:41:47;22;20;
48155;PMS5003;35568;48.104;11.782;2023-02-15T15:44:25;25;23;
48155;PMS5003;35568;48.104;11.782;2023-02-15T15:47:15;27;26;
48155;PMS5003;35568;48.104;11.782;2023-02-15T15:49:55;27;25;
48155;PMS5003;35568;48.104;11.782;2023-02-15T15:52:23;24;24;
48155;PMS5003;35568;48.104;11.782;2023-02-15T15:54:52;31;29;
48155;PMS5003;35568;48.104;11.782;2023-02-15T15:57:25;28;26;
48155;PMS5003;35568;48.104;11.782;2023-02-15T15:59:55;25;24;
48155;PMS5003;35568;48.104;11.782;2023-02-15T16:02:23;23;22;
48155;PMS5003;35568;48.104;11.782;2023-02-15T16:04:50;27;26;
48155;PMS5003;35568;48.104;11.782;2023-02-15T16:07:22;26;25;
48155;PMS5003;35568;48.104;11.782;2023-02-15T16:09:55;29;27;
48155;PMS5003;35568;48.104;11.782;2023-02-15T16:12:25;28;28;
48155;PMS5003;35568;48.104;11.782;2023-02-15T16:14:54;29;27;
48155;PMS5003;35568;48.104;11.782;2023-02-15T16:17:23;29;27;
48155;PMS5003;35568;48.104;11.782;2023-02-15T16:19:52;25;24;
48155;PMS5003;35568;48.104;11.782;2023-02-15T16:22:27;29;28;
48155;PMS5003;35568;48.104;11.782;2023-02-15T16:24:58;26;25;
48155;PMS5003;35568;48.104;11.782;2023-02-15T16:27:46;32;30;
48155;PMS5003;35568;48.104;11.782;2023-02-15T16:30:19;29;28;
48155;PMS5003;35568;48.104;11.782;2023-02-15T16:32:53;30;28;
48155;PMS5003;35568;48.104;11.782;2023-02-15T16:35:21;29;26;